createdAt,value
2022-08-26T15:31:45.454Z,31.89
2022-08-26T15:34:17.028Z,31.76
2022-08-26T15:36:48.687Z,31.75
2022-08-26T15:39:19.054Z,31.72
2022-08-26T15:41:49.075Z,31.65
2022-08-26T15:44:20.345Z,31.63
2022-08-26T15:46:56.546Z,31.58
2022-08-26T15:49:28.903Z,31.44
2022-08-26T15:51:59.359Z,31.30
2022-08-26T15:54:32.378Z,31.33
2022-08-26T15:57:04.091Z,31.25
2022-08-26T15:59:35.000Z,31.20
2022-08-26T16:02:07.428Z,31.21
2022-08-26T16:04:39.947Z,31.10
2022-08-26T16:07:09.824Z,30.98
2022-08-26T16:09:39.463Z,30.88
2022-08-26T16:12:09.513Z,30.91
2022-08-26T16:14:41.810Z,30.75
2022-08-26T16:17:13.839Z,30.75
2022-08-26T16:19:43.851Z,30.69
2022-08-26T16:22:15.093Z,30.65
2022-08-26T16:24:45.718Z,30.61
2022-08-26T16:27:15.444Z,30.57
2022-08-26T16:29:45.669Z,30.52
2022-08-26T16:32:17.228Z,30.55
2022-08-26T16:34:56.329Z,30.43
2022-08-26T16:37:28.973Z,30.33
2022-08-26T16:40:00.814Z,30.29
2022-08-26T16:42:31.723Z,30.29
2022-08-26T16:45:02.780Z,30.23
2022-08-26T16:47:37.580Z,30.22
2022-08-26T16:50:09.774Z,30.11
2022-08-26T16:52:40.593Z,29.96
2022-08-26T16:55:17.881Z,29.94
2022-08-26T16:57:48.701Z,29.89
2022-08-26T17:00:22.108Z,29.81
2022-08-26T17:02:54.282Z,29.85
2022-08-26T17:05:28.986Z,29.79
2022-08-26T17:08:01.317Z,29.75
2022-08-26T17:10:32.492Z,29.54
2022-08-26T17:13:04.203Z,29.48
2022-08-26T17:15:36.084Z,29.37
2022-08-26T17:18:09.849Z,29.28
2022-08-26T17:20:39.937Z,29.19
2022-08-26T17:23:12.491Z,29.19
2022-08-26T17:25:43.005Z,29.24
2022-08-26T17:28:14.688Z,29.31
2022-08-26T17:30:49.456Z,29.36
2022-08-26T17:33:24.524Z,29.43
2022-08-26T17:36:00.895Z,29.49
2022-08-26T17:38:31.112Z,29.53
2022-08-26T17:41:05.909Z,29.56
2022-08-26T17:43:40.838Z,29.55
2022-08-26T17:46:12.157Z,29.57
2022-08-26T17:48:43.303Z,29.59
2022-08-26T17:51:14.345Z,29.58
2022-08-26T17:53:46.865Z,30.19
2022-08-26T18:06:13.983Z,29.46
2022-08-26T18:08:45.156Z,29.30
2022-08-26T18:11:17.868Z,29.31
2022-08-26T18:13:50.666Z,29.18
2022-08-26T18:16:21.010Z,29.01
2022-08-26T18:18:53.643Z,29.00
2022-08-26T18:21:28.206Z,29.05
2022-08-26T18:24:00.729Z,29.08
2022-08-26T18:26:38.065Z,29.11
2022-08-26T18:29:10.745Z,29.16
2022-08-26T18:31:40.123Z,29.16
2022-08-26T18:34:16.146Z,29.15
2022-08-26T18:36:48.129Z,29.07
2022-08-26T18:39:22.113Z,28.82
2022-08-26T18:41:53.953Z,28.61
2022-08-26T18:44:24.039Z,28.54
2022-08-26T18:46:54.100Z,28.64
2022-08-26T18:49:25.303Z,28.81
2022-08-26T18:51:56.097Z,28.95
2022-08-26T18:54:27.153Z,29.05
2022-08-26T18:56:58.778Z,29.11
2022-08-26T18:59:30.615Z,28.90
2022-08-26T19:02:02.393Z,28.92
2022-08-26T19:04:33.093Z,28.67
2022-08-26T19:07:04.904Z,28.69
2022-08-26T19:09:35.127Z,28.41
2022-08-26T19:12:07.042Z,28.26
2022-08-26T19:14:37.780Z,28.19
2022-08-26T19:17:10.071Z,28.14
2022-08-26T19:19:39.627Z,28.00
2022-08-26T19:22:11.070Z,28.10
2022-08-26T19:24:43.144Z,28.14
2022-08-26T19:27:25.497Z,28.30
2022-08-26T19:29:56.553Z,28.29
2022-08-26T19:32:26.966Z,28.41
2022-08-26T19:34:59.902Z,28.53
2022-08-26T19:37:31.461Z,28.69
2022-08-26T19:40:01.244Z,28.56
2022-08-26T19:42:32.004Z,28.59
2022-08-26T19:45:24.325Z,28.56
2022-08-26T19:47:55.536Z,28.58
2022-08-26T19:50:28.208Z,28.53
2022-08-26T19:53:00.783Z,28.50
2022-08-26T19:55:31.566Z,28.57
2022-08-26T19:58:01.667Z,28.54
2022-08-26T20:00:32.359Z,28.42
2022-08-26T20:03:02.703Z,28.38
2022-08-26T20:05:33.281Z,28.39
2022-08-26T20:08:04.283Z,28.46
2022-08-26T20:10:35.415Z,29.05
2022-08-26T20:13:06.153Z,28.54
2022-08-26T20:15:38.990Z,28.48
2022-08-26T20:18:30.721Z,28.51
2022-08-26T20:21:19.535Z,28.60
2022-08-26T20:23:51.754Z,28.68
2022-08-26T20:26:21.482Z,28.65
2022-08-26T20:28:54.380Z,28.62
2022-08-26T20:31:26.065Z,28.64
2022-08-26T20:33:56.941Z,28.58
2022-08-26T20:36:28.319Z,28.65
2022-08-26T20:39:00.420Z,28.68
2022-08-26T20:41:30.117Z,28.59
2022-08-26T20:44:00.574Z,28.62
2022-08-26T20:46:30.348Z,28.63
2022-08-26T20:48:59.877Z,28.54
2022-08-26T20:51:30.659Z,28.48
2022-08-26T20:54:01.766Z,28.44
2022-08-26T20:56:30.984Z,28.82
2022-08-26T20:59:02.647Z,28.28
2022-08-26T21:01:35.611Z,28.15
2022-08-26T21:04:09.696Z,27.97
2022-08-26T21:06:39.764Z,27.98
2022-08-26T21:09:15.623Z,27.99
2022-08-26T21:11:47.225Z,27.89
2022-08-26T21:14:17.610Z,27.84
2022-08-26T21:16:49.456Z,27.86
2022-08-26T21:19:20.815Z,27.88
2022-08-26T21:21:50.397Z,28.44
2022-08-26T21:24:21.283Z,27.86
2022-08-26T21:26:51.239Z,27.70
2022-08-26T21:29:25.525Z,27.57
2022-08-26T21:31:54.876Z,27.51
2022-08-26T21:34:28.319Z,27.44
2022-08-26T21:36:57.466Z,27.23
2022-08-26T21:39:30.445Z,27.19
2022-08-26T21:42:02.983Z,27.04
2022-08-26T21:44:33.969Z,27.05
2022-08-26T21:47:05.119Z,27.20
2022-08-26T21:49:34.677Z,27.39
2022-08-26T21:52:06.032Z,27.51
2022-08-26T21:54:36.689Z,28.04
2022-08-26T21:57:06.657Z,27.55
2022-08-26T21:59:36.665Z,27.57
2022-08-26T22:02:08.759Z,27.50
2022-08-26T22:04:38.782Z,27.61
2022-08-26T22:07:08.788Z,27.59
2022-08-26T22:09:40.051Z,27.59
2022-08-26T22:12:14.764Z,27.44
2022-08-26T22:14:45.106Z,27.41
2022-08-26T22:17:16.154Z,27.48
2022-08-26T22:19:46.903Z,27.54
2022-08-26T22:22:16.702Z,27.50
2022-08-26T22:24:48.338Z,27.46
2022-08-26T22:27:18.837Z,27.38
2022-08-26T22:29:49.993Z,27.43
2022-08-26T22:32:21.375Z,27.50
2022-08-26T22:34:51.691Z,27.33
2022-08-26T22:37:21.175Z,27.27
2022-08-26T22:39:52.214Z,27.51
2022-08-26T22:42:21.313Z,27.51
2022-08-26T22:44:51.037Z,27.58
2022-08-26T22:47:20.798Z,27.64
2022-08-26T22:49:54.925Z,27.66
2022-08-26T22:52:24.323Z,27.67
2022-08-26T22:54:55.794Z,27.63
2022-08-26T22:57:25.939Z,27.74
2022-08-26T22:59:55.833Z,27.81
2022-08-26T23:02:34.975Z,27.96
2022-08-26T23:05:04.591Z,27.84
2022-08-26T23:07:34.169Z,27.80
2022-08-26T23:10:07.893Z,27.89
2022-08-26T23:12:38.187Z,27.74
2022-08-26T23:15:09.634Z,27.80
2022-08-26T23:17:39.324Z,27.71
2022-08-26T23:20:11.889Z,27.70
2022-08-26T23:22:41.264Z,27.65
2022-08-26T23:25:13.403Z,27.67
2022-08-26T23:27:44.791Z,27.54
2022-08-26T23:30:17.363Z,27.52
2022-08-26T23:32:46.707Z,27.40
2022-08-26T23:35:14.810Z,27.38
2022-08-26T23:37:48.986Z,27.39
2022-08-26T23:40:29.403Z,27.32
2022-08-26T23:43:00.293Z,27.22
2022-08-26T23:45:32.974Z,27.24
2022-08-26T23:48:03.391Z,27.09
2022-08-26T23:50:56.701Z,27.20
2022-08-26T23:53:29.982Z,27.19
2022-08-26T23:56:02.005Z,27.11
2022-08-26T23:58:31.554Z,27.02
